createdAt,value
2023-05-19T00:01:17.814Z,102561.81
2023-05-19T00:04:02.967Z,102573.47
2023-05-19T00:06:32.775Z,102578.94
2023-05-19T00:09:03.869Z,102586.09
2023-05-19T00:11:31.703Z,102585.91
2023-05-19T00:14:00.832Z,102588.31
2023-05-19T00:16:30.068Z,102586.88
2023-05-19T00:19:03.153Z,102588.03
2023-05-19T00:21:32.844Z,102581.59
2023-05-19T00:24:00.412Z,102587.75
2023-05-19T00:26:29.232Z,102585.16
2023-05-19T00:29:05.966Z,102582.31
2023-05-19T00:31:34.376Z,102581.81
2023-05-19T00:34:02.340Z,102581.50
2023-05-19T00:36:29.979Z,102584.31
2023-05-19T00:38:57.629Z,102585.34
2023-05-19T00:41:25.246Z,102583.91
2023-05-19T00:43:52.952Z,102584.09
2023-05-19T00:46:20.660Z,102580.56
2023-05-19T00:48:48.512Z,102575.88
2023-05-19T00:51:17.367Z,102573.13
2023-05-19T00:53:49.299Z,102565.06
2023-05-19T00:56:18.593Z,102574.75
2023-05-19T00:58:46.882Z,102574.75
2023-05-19T01:01:17.371Z,102586.38
2023-05-19T01:03:45.452Z,102598.06
2023-05-19T01:06:13.215Z,102592.81
2023-05-19T01:08:41.321Z,102596.16
2023-05-19T01:11:08.901Z,102597.69
2023-05-19T01:13:37.512Z,102592.03
2023-05-19T01:16:26.876Z,102593.34
2023-05-19T01:19:05.407Z,102598.53
2023-05-19T01:21:44.586Z,102587.16
2023-05-19T01:24:23.030Z,102584.97
2023-05-19T01:27:03.404Z,102576.75
2023-05-19T01:30:15.293Z,102580.38
2023-05-19T01:32:45.645Z,102582.75
2023-05-19T01:35:16.843Z,102586.09
2023-05-19T01:37:46.857Z,102577.56
2023-05-19T02:12:19.593Z,102604.94
2023-05-19T03:53:14.592Z,102607.06
2023-05-19T03:55:44.521Z,102604.03
2023-05-19T03:58:14.686Z,102613.44
2023-05-19T04:00:42.732Z,102607.72
2023-05-19T04:03:10.435Z,102605.53
2023-05-19T04:05:39.119Z,102608.03
2023-05-19T04:08:06.701Z,102609.69
2023-05-19T04:10:34.736Z,102614.00
2023-05-19T04:13:02.500Z,102620.03
2023-05-19T04:15:30.232Z,102615.34
2023-05-19T04:17:57.879Z,102620.47
2023-05-19T04:20:25.675Z,102622.09
2023-05-19T04:22:53.238Z,102622.88
2023-05-19T04:25:20.799Z,102637.78
2023-05-19T04:27:48.959Z,102637.69
2023-05-19T04:30:22.502Z,102635.78
2023-05-19T04:32:51.349Z,102638.38
2023-05-19T04:35:19.657Z,102634.66
2023-05-19T04:37:48.610Z,102638.19
2023-05-19T04:40:21.226Z,102653.22
2023-05-19T04:42:49.917Z,102639.84
2023-05-19T04:45:17.577Z,102647.75
2023-05-19T04:47:48.363Z,102644.13
2023-05-19T04:50:16.985Z,102647.56
2023-05-19T04:52:48.067Z,102643.94
2023-05-19T04:55:17.396Z,102632.28
2023-05-19T04:57:46.051Z,102633.41
2023-05-19T05:00:15.112Z,102629.19
2023-05-19T05:02:54.034Z,102634.38
2023-05-19T05:05:22.596Z,102637.16
2023-05-19T05:07:50.804Z,102647.50
2023-05-19T05:10:18.459Z,102650.59
2023-05-19T05:12:47.495Z,102647.94
2023-05-19T05:15:15.568Z,102648.78
2023-05-19T05:17:43.863Z,102652.56
2023-05-19T05:20:12.845Z,102641.09
2023-05-19T05:22:41.059Z,102661.84
2023-05-19T05:25:10.520Z,102658.53
2023-05-19T05:27:38.606Z,102662.50
2023-05-19T05:30:08.414Z,102662.84
2023-05-19T05:32:37.434Z,102668.09
2023-05-19T05:35:11.008Z,102665.28
2023-05-19T05:37:39.550Z,102660.63
2023-05-19T05:40:07.980Z,102656.78
2023-05-19T05:42:36.334Z,102662.66
2023-05-19T05:45:04.295Z,102664.91
2023-05-19T05:47:32.849Z,102658.16
2023-05-19T05:50:01.417Z,102651.38
2023-05-19T05:52:31.075Z,102646.53
2023-05-19T05:55:00.725Z,102641.78
2023-05-19T05:57:30.876Z,102655.72
2023-05-19T05:59:58.542Z,102660.84
2023-05-19T06:02:27.865Z,102670.69
2023-05-19T06:04:57.964Z,102667.06
2023-05-19T06:07:26.323Z,102672.25
2023-05-19T06:09:54.143Z,102667.34
2023-05-19T06:12:23.068Z,102671.00
2023-05-19T06:14:52.097Z,102670.13
2023-05-19T06:17:48.603Z,102665.22
2023-05-19T06:20:16.387Z,102668.84
2023-05-19T06:22:44.084Z,102676.66
2023-05-19T06:25:12.310Z,102668.88
2023-05-19T06:27:39.942Z,102671.59
2023-05-19T06:30:08.854Z,102661.00
2023-05-19T06:32:44.923Z,102664.50
2023-05-19T06:35:13.187Z,102665.44
2023-05-19T06:37:40.882Z,102664.28
2023-05-19T06:40:09.200Z,102671.78
2023-05-19T06:42:38.511Z,102676.03
2023-05-19T06:45:15.297Z,102671.56
2023-05-19T06:47:44.546Z,102673.69
2023-05-19T06:50:12.397Z,102682.66
2023-05-19T06:52:42.951Z,102681.78
2023-05-19T06:55:10.645Z,102679.34
2023-05-19T06:57:39.483Z,102684.69
2023-05-19T07:00:13.883Z,102689.63
2023-05-19T07:02:44.857Z,102692.00
2023-05-19T07:05:12.850Z,102697.66
2023-05-19T07:07:42.010Z,102690.22
2023-05-19T07:10:14.045Z,102696.22
2023-05-19T07:12:42.276Z,102698.78
2023-05-19T07:15:10.353Z,102701.72
2023-05-19T07:17:38.801Z,102700.72
2023-05-19T07:20:07.073Z,102699.63
2023-05-19T07:22:38.695Z,102702.72
2023-05-19T07:25:08.345Z,102703.47
2023-05-19T07:27:36.782Z,102708.91
2023-05-19T07:30:04.822Z,102720.56
2023-05-19T07:32:32.904Z,102721.13
2023-05-19T07:35:00.553Z,102723.53
2023-05-19T07:37:28.233Z,102730.28
2023-05-19T07:39:55.978Z,102725.22
2023-05-19T07:42:24.123Z,102725.97
2023-05-19T07:44:51.734Z,102730.97
2023-05-19T07:47:19.365Z,102731.84
2023-05-19T07:49:49.064Z,102727.28
2023-05-19T07:52:19.585Z,102728.19
2023-05-19T07:54:47.241Z,102729.88
2023-05-19T07:57:14.940Z,102732.59
2023-05-19T07:59:42.569Z,102732.88
2023-05-19T08:03:13.573Z,102733.13
2023-05-19T08:09:32.618Z,102738.31
2023-05-19T17:52:43.342Z,102735.81
2023-05-19T17:59:19.032Z,102736.06
2023-05-19T18:01:46.905Z,102733.78
2023-05-19T18:04:32.919Z,102736.88
2023-05-19T18:07:02.619Z,102733.47
2023-05-19T18:09:30.839Z,102729.31
2023-05-19T18:12:02.164Z,102732.44
2023-05-19T18:14:30.061Z,102738.72
2023-05-19T18:16:57.773Z,102739.97
2023-05-19T18:19:25.841Z,102732.25
2023-05-19T18:21:53.513Z,102736.81
2023-05-19T18:24:21.337Z,102734.00
2023-05-19T18:26:49.012Z,102737.28
2023-05-19T18:29:16.788Z,102743.06
2023-05-19T18:31:44.459Z,102740.94
2023-05-19T18:34:12.686Z,102739.75
2023-05-19T18:36:40.299Z,102742.88
2023-05-19T18:39:07.947Z,102744.13
2023-05-19T18:41:37.505Z,102738.16
2023-05-19T18:44:07.990Z,102745.53
2023-05-19T18:46:35.841Z,102739.78
2023-05-19T18:49:03.935Z,102748.25
2023-05-19T18:51:33.528Z,102758.91
2023-05-19T18:54:01.139Z,102758.09
2023-05-19T18:56:31.747Z,102763.91
2023-05-19T18:58:59.446Z,102764.91
2023-05-19T19:01:27.427Z,102766.16
2023-05-19T19:04:29.320Z,102767.81
2023-05-19T19:10:50.465Z,102765.41
2023-05-19T19:13:20.098Z,102767.03
2023-05-19T19:15:52.735Z,102766.56
2023-05-19T19:18:23.175Z,102778.47
2023-05-19T19:20:55.112Z,102765.72
2023-05-19T19:23:27.387Z,102771.53
2023-05-19T19:25:58.734Z,102771.78
2023-05-19T19:28:27.052Z,102769.47
2023-05-19T19:30:54.895Z,102771.53
2023-05-19T19:33:23.358Z,102774.75
2023-05-19T19:35:51.645Z,102774.38
2023-05-19T19:38:19.709Z,102771.94
2023-05-19T19:40:47.368Z,102776.72
2023-05-19T19:43:15.938Z,102767.53
2023-05-19T19:45:44.390Z,102772.44
2023-05-19T19:48:12.985Z,102770.88
2023-05-19T19:50:41.388Z,102779.81
2023-05-19T19:53:10.489Z,102786.56
2023-05-19T19:55:39.708Z,102790.50
2023-05-19T19:58:08.809Z,102792.69
2023-05-19T20:00:37.172Z,102790.22
2023-05-19T20:03:06.949Z,102784.38
2023-05-19T20:05:39.550Z,102788.41
2023-05-19T20:08:09.192Z,102800.66
2023-05-19T20:10:39.406Z,102803.59
2023-05-19T20:13:09.222Z,102799.69
2023-05-19T20:15:39.090Z,102805.31
2023-05-19T20:18:07.151Z,102809.34
2023-05-19T20:20:42.452Z,102806.88
2023-05-19T20:23:12.867Z,102806.50
2023-05-19T20:25:51.070Z,102801.31
2023-05-19T20:28:31.110Z,102804.22
2023-05-19T20:30:59.779Z,102812.47
2023-05-19T20:33:27.605Z,102807.16
2023-05-19T20:35:55.514Z,102803.84
2023-05-19T20:39:02.578Z,102802.47
2023-05-19T20:41:30.198Z,102809.19
2023-05-19T20:43:57.874Z,102805.88
2023-05-19T20:46:34.446Z,102805.16
2023-05-19T20:49:11.159Z,102808.81
2023-05-19T20:51:42.054Z,102805.38
2023-05-19T20:54:09.770Z,102801.22
2023-05-19T20:56:37.349Z,102802.16
2023-05-19T20:59:05.457Z,102796.91
2023-05-19T21:01:33.187Z,102799.69
2023-05-19T21:25:59.676Z,102815.94
2023-05-19T21:28:30.052Z,102814.47
2023-05-19T21:30:57.777Z,102816.41
2023-05-19T22:09:58.243Z,102820.13
2023-05-19T22:12:26.827Z,102821.22
2023-05-19T22:14:54.399Z,102814.88
2023-05-19T22:17:22.152Z,102808.59
2023-05-19T23:31:26.582Z,102844.06
2023-05-19T23:33:54.616Z,102841.25
2023-05-19T23:36:23.277Z,102843.84
2023-05-19T23:38:51.061Z,102850.94
2023-05-19T23:41:18.594Z,102850.72
2023-05-19T23:43:46.329Z,102845.34
2023-05-19T23:46:13.956Z,102842.53
2023-05-19T23:48:41.666Z,102839.84
2023-05-19T23:51:09.244Z,102845.34
2023-05-19T23:53:36.913Z,102842.88
2023-05-19T23:56:04.659Z,102854.63
2023-05-19T23:58:32.294Z,102848.47
